createdAt,value
2018-02-01T06:19:16.915Z,13.77
2018-02-01T06:21:48.798Z,10.30
2018-02-01T06:24:21.428Z,14.83
2018-02-01T06:26:53.315Z,18.90
2018-02-01T06:29:25.202Z,12.40
2018-02-01T06:31:57.166Z,16.60
2018-02-01T06:34:29.038Z,10.50
2018-02-01T06:37:00.919Z,14.97
2018-02-01T06:39:32.791Z,10.10
2018-02-01T06:42:04.666Z,12.60
2018-02-01T06:44:36.763Z,14.83
2018-02-01T06:47:08.644Z,16.47
2018-02-01T06:49:40.515Z,13.77
2018-02-01T06:52:12.385Z,11.50
2018-02-01T06:54:44.255Z,13.10
2018-02-01T06:57:16.204Z,18.03
2018-02-01T06:59:48.075Z,16.00
2018-02-01T07:02:19.962Z,11.20
2018-02-01T07:04:51.840Z,13.33
2018-02-01T07:07:24.483Z,9.00
2018-02-01T07:09:56.355Z,11.57
2018-02-01T07:12:28.262Z,9.97
2018-02-01T07:15:00.131Z,10.17
2018-02-01T07:17:32.007Z,15.10
2018-02-01T07:20:03.887Z,13.27
2018-02-01T07:22:35.782Z,12.07
2018-02-01T07:25:08.422Z,13.17
2018-02-01T07:27:40.323Z,17.20
2018-02-01T07:30:12.195Z,9.03
2018-02-01T07:32:44.079Z,10.97
2018-02-01T07:35:15.939Z,9.77
2018-02-01T07:37:47.821Z,13.10
2018-02-01T07:40:19.693Z,15.03
2018-02-01T07:42:51.574Z,15.33
2018-02-01T07:45:24.211Z,16.43
2018-02-01T07:47:56.103Z,9.70
2018-02-01T07:50:29.010Z,13.10
2018-02-01T07:53:01.180Z,16.70
2018-02-01T07:55:33.339Z,12.80
2018-02-01T07:58:05.231Z,15.30
2018-02-01T08:00:37.866Z,15.63
2018-02-01T08:03:10.761Z,11.87
2018-02-01T08:05:42.631Z,21.73
2018-02-01T08:08:14.517Z,15.63
2018-02-01T08:10:46.387Z,13.63
2018-02-01T08:13:18.271Z,14.30
2018-02-01T08:15:50.201Z,14.63
2018-02-01T08:18:22.804Z,14.20
2018-02-01T08:20:54.911Z,12.37
2018-02-01T08:23:27.072Z,20.17
2018-02-01T08:25:59.235Z,8.70
2018-02-01T08:28:31.122Z,13.77
2018-02-01T08:31:03.012Z,11.57
2018-02-01T08:33:34.894Z,13.00
2018-02-01T08:36:07.526Z,9.43
2018-02-01T08:38:39.411Z,13.37
2018-02-01T08:41:11.278Z,13.60
2018-02-01T08:43:43.164Z,15.67
2018-02-01T08:46:15.790Z,14.10
2018-02-01T08:48:47.662Z,9.67
2018-02-01T08:51:19.530Z,11.27
2018-02-01T08:53:51.410Z,12.20
2018-02-01T08:56:23.281Z,11.07
2018-02-01T08:58:55.927Z,13.30
2018-02-01T09:01:27.799Z,13.37
2018-02-01T09:03:59.691Z,11.47
2018-02-01T09:06:31.560Z,15.60
2018-02-01T09:09:03.444Z,10.07
2018-02-01T09:11:35.380Z,15.13
2018-02-01T09:14:08.011Z,12.43
2018-02-01T09:16:39.884Z,9.63
2018-02-01T09:19:11.771Z,9.97
2018-02-01T09:21:43.639Z,13.87
2018-02-01T09:24:15.795Z,16.73
2018-02-01T09:26:47.667Z,19.03
2018-02-01T09:29:19.825Z,15.73
2018-02-01T09:31:51.695Z,14.80
2018-02-01T09:34:23.579Z,10.03
2018-02-01T09:36:55.452Z,10.77
2018-02-01T09:39:27.334Z,8.87
2018-02-01T09:41:59.206Z,12.50
2018-02-01T09:44:31.867Z,16.93
2018-02-01T09:47:03.750Z,12.03
2018-02-01T09:49:36.407Z,14.07
2018-02-01T09:52:08.288Z,13.90
2018-02-01T09:54:40.954Z,11.40
2018-02-01T09:57:12.825Z,8.83
2018-02-01T09:59:45.715Z,9.77
2018-02-01T10:02:17.583Z,6.90
2018-02-01T10:04:49.471Z,12.93
2018-02-01T10:07:21.352Z,14.73
2018-02-01T10:09:53.238Z,11.50
2018-02-01T10:12:26.138Z,9.07
2018-02-01T10:14:58.038Z,13.97
2018-02-01T10:17:29.902Z,9.60
2018-02-01T10:20:01.800Z,7.43
2018-02-01T10:22:33.666Z,10.40
2018-02-01T10:25:06.319Z,12.33
2018-02-01T10:27:38.209Z,12.83
2018-02-01T10:30:10.138Z,10.67
2018-02-01T10:32:42.024Z,11.13
2018-02-01T10:35:14.741Z,14.87
2018-02-01T10:37:46.630Z,11.90
2018-02-01T10:40:18.519Z,9.87
2018-02-01T10:42:50.386Z,10.07
2018-02-01T10:45:23.029Z,10.43
2018-02-01T10:47:54.898Z,9.93
2018-02-01T10:50:26.794Z,10.57
2018-02-01T10:52:59.421Z,12.10
2018-02-01T10:55:31.330Z,14.73
2018-02-01T10:58:03.966Z,10.57
2018-02-01T11:00:36.675Z,8.20
2018-02-01T11:03:08.540Z,8.47
2018-02-01T11:05:41.231Z,13.63
2018-02-01T11:08:13.867Z,10.47
2018-02-01T11:10:45.753Z,8.43
2018-02-01T11:13:18.658Z,6.17
2018-02-01T11:15:50.538Z,8.43
2018-02-01T11:18:22.402Z,10.90
2018-02-01T11:20:54.278Z,9.70
2018-02-01T11:23:26.150Z,8.23
2018-02-01T11:25:58.047Z,10.33
2018-02-01T11:28:30.939Z,7.00
2018-02-01T11:31:02.830Z,12.03
2018-02-01T11:33:34.719Z,10.97
2018-02-01T11:36:06.804Z,14.60
2018-02-01T11:38:39.434Z,10.13
2018-02-01T11:41:11.317Z,9.90
2018-02-01T11:43:43.246Z,8.50
2018-02-01T11:46:15.125Z,10.57
2018-02-01T11:48:47.007Z,9.93
2018-02-01T11:51:18.884Z,7.67
2018-02-01T11:53:50.761Z,6.93
2018-02-01T11:56:23.416Z,6.73
2018-02-01T11:58:55.314Z,14.73
2018-02-01T12:01:27.190Z,9.13
2018-02-01T12:03:59.327Z,9.63
2018-02-01T12:06:31.210Z,11.00
2018-02-01T12:09:03.098Z,8.13
2018-02-01T12:11:34.983Z,9.57
2018-02-01T12:14:07.174Z,13.97
2018-02-01T12:16:39.059Z,13.83
2018-02-01T12:19:10.927Z,11.83
2018-02-01T12:21:43.059Z,12.07
2018-02-01T12:24:14.940Z,15.47
2018-02-01T12:26:46.820Z,13.60
2018-02-01T12:29:18.686Z,9.77
2018-02-01T12:31:51.351Z,12.10
2018-02-01T12:34:23.218Z,8.83
2018-02-01T12:36:55.110Z,8.60
2018-02-01T12:39:26.982Z,9.00
2018-02-01T12:41:59.635Z,9.43
2018-02-01T12:44:31.514Z,12.37
2018-02-01T12:47:03.402Z,17.73
2018-02-01T12:49:35.278Z,11.93
2018-02-01T12:52:07.171Z,10.20
2018-02-01T12:54:39.050Z,11.73
2018-02-01T12:57:10.923Z,6.73
2018-02-01T12:59:43.565Z,6.37
2018-02-01T13:02:15.474Z,9.43
2018-02-01T13:04:48.105Z,9.30
2018-02-01T13:07:19.984Z,9.03
2018-02-01T13:09:51.867Z,7.73
2018-02-01T13:12:24.523Z,7.67
2018-02-01T13:14:56.394Z,7.53
2018-02-01T13:17:29.035Z,9.43
2018-02-01T13:20:00.910Z,10.80
2018-02-01T13:22:32.806Z,6.67
2018-02-01T13:25:05.454Z,6.10
2018-02-01T13:27:37.655Z,7.60
2018-02-01T13:30:09.535Z,4.87
2018-02-01T13:32:41.410Z,7.90
2018-02-01T13:35:13.279Z,6.17
2018-02-01T13:37:47.038Z,6.73
2018-02-01T13:40:19.001Z,5.53
2018-02-01T13:42:51.646Z,3.40
2018-02-01T13:45:23.527Z,4.40
2018-02-01T13:47:56.177Z,6.80
2018-02-01T13:50:28.068Z,5.37
2018-02-01T13:53:00.710Z,11.40
2018-02-01T13:55:32.591Z,3.13
2018-02-01T13:58:04.527Z,3.53
2018-02-01T14:00:36.494Z,3.03
2018-02-01T14:03:08.394Z,5.67
2018-02-01T14:05:40.265Z,3.87
2018-02-01T14:08:12.164Z,5.43
2018-02-01T14:10:44.026Z,3.30
2018-02-01T14:13:16.143Z,4.27
2018-02-01T14:15:48.016Z,3.13
2018-02-01T14:18:19.903Z,2.23
2018-02-01T14:20:51.766Z,2.97
2018-02-01T14:23:23.639Z,2.90
2018-02-01T14:25:55.506Z,4.33
2018-02-01T14:28:27.715Z,3.57
2018-02-01T14:30:59.585Z,6.00
2018-02-01T14:33:31.472Z,5.43
2018-02-01T14:36:03.699Z,4.87
2018-02-01T14:38:35.591Z,3.73
2018-02-01T14:41:07.509Z,3.37
2018-02-01T14:43:39.359Z,2.63
2018-02-01T14:46:12.001Z,4.13
2018-02-01T14:48:44.225Z,3.20
2018-02-01T14:51:16.092Z,5.10
2018-02-01T14:53:48.045Z,4.07
2018-02-01T14:56:20.672Z,6.20
2018-02-01T14:58:52.567Z,3.80
2018-02-01T15:01:25.210Z,5.83
2018-02-01T15:03:57.103Z,4.70
2018-02-01T15:06:28.958Z,4.60
2018-02-01T15:09:01.620Z,5.93
2018-02-01T15:11:33.499Z,3.27
2018-02-01T15:14:05.412Z,5.07
2018-02-01T15:16:37.332Z,4.40
2018-02-01T15:19:09.999Z,3.40
2018-02-01T15:21:42.643Z,4.47
2018-02-01T15:24:14.762Z,4.80
2018-02-01T15:26:46.635Z,7.83
2018-02-01T15:29:18.585Z,6.50
2018-02-01T15:31:51.223Z,6.13
2018-02-01T15:34:23.103Z,8.80
2018-02-01T15:36:55.753Z,9.60
2018-02-01T15:39:27.638Z,8.90
2018-02-01T15:41:59.503Z,7.40
2018-02-01T15:44:32.158Z,8.20
2018-02-01T15:47:04.263Z,11.03
2018-02-01T15:49:36.165Z,10.03
2018-02-01T15:52:08.390Z,6.90
2018-02-01T15:54:40.278Z,6.27
2018-02-01T15:57:12.178Z,7.60
2018-02-01T15:59:44.071Z,10.70
2018-02-01T16:02:16.748Z,6.80
2018-02-01T16:04:49.412Z,5.50
2018-02-01T16:07:22.044Z,5.00
2018-02-01T16:09:53.953Z,7.90
2018-02-01T16:12:26.625Z,6.07
2018-02-01T16:14:58.579Z,7.43
2018-02-01T16:17:30.455Z,8.33
2018-02-01T16:20:03.107Z,7.27
2018-02-01T16:22:35.014Z,9.57
2018-02-01T16:25:06.887Z,9.27
2018-02-01T16:27:39.042Z,7.80
2018-02-01T16:30:11.126Z,4.33
2018-02-01T16:32:43.854Z,7.97
2018-02-01T16:35:15.739Z,6.93
2018-02-01T16:37:47.612Z,7.53
2018-02-01T16:40:19.486Z,6.47
2018-02-01T16:42:51.348Z,6.23
2018-02-01T16:45:23.223Z,9.03
2018-02-01T16:47:55.346Z,7.83
2018-02-01T16:50:28.020Z,5.40
2018-02-01T16:53:00.663Z,10.23
2018-02-01T16:55:32.559Z,10.20
2018-02-01T16:58:05.223Z,8.63
2018-02-01T17:00:37.866Z,8.40
2018-02-01T17:03:09.984Z,11.13
2018-02-01T17:05:41.871Z,13.17
2018-02-01T17:08:13.759Z,10.13
2018-02-01T17:10:45.671Z,9.27
2018-02-01T17:13:17.551Z,10.63
2018-02-01T17:15:49.471Z,12.50
2018-02-01T17:18:22.102Z,13.70
2018-02-01T17:20:53.995Z,11.00
2018-02-01T17:23:25.871Z,12.43
2018-02-01T17:25:57.762Z,11.27
2018-02-01T17:28:29.911Z,10.37
2018-02-01T17:31:01.837Z,11.33
2018-02-01T17:33:33.707Z,14.63
2018-02-01T17:36:05.613Z,12.73
2018-02-01T17:38:37.506Z,14.43
2018-02-01T17:41:09.393Z,12.90
2018-02-01T17:43:41.283Z,15.50
2018-02-01T17:46:13.163Z,15.50
2018-02-01T17:48:45.047Z,13.20
2018-02-01T17:51:17.159Z,14.20
2018-02-01T17:53:49.330Z,13.90
2018-02-01T17:56:22.052Z,16.07
2018-02-01T17:58:53.920Z,16.70
2018-02-01T18:01:25.814Z,12.80
2018-02-01T18:03:58.475Z,16.43
2018-02-01T18:06:30.360Z,17.03
2018-02-01T18:09:03.109Z,15.50
2018-02-01T18:11:35.003Z,13.47
2018-02-01T18:14:07.709Z,18.87
2018-02-01T18:16:39.852Z,15.40
2018-02-01T18:19:11.737Z,14.70
2018-02-01T18:21:43.645Z,11.63
2018-02-01T18:24:15.519Z,11.93
2018-02-01T18:26:48.415Z,11.37
2018-02-01T18:29:20.295Z,15.50
2018-02-01T18:31:52.444Z,15.60
2018-02-01T18:34:24.326Z,15.70
2018-02-01T18:36:56.466Z,15.03
2018-02-01T18:39:28.339Z,15.60
2018-02-01T18:42:00.226Z,20.10
2018-02-01T18:44:32.112Z,23.00
2018-02-01T18:47:03.991Z,22.30
2018-02-01T18:49:36.922Z,18.90
2018-02-01T18:52:08.803Z,17.00
2018-02-01T18:54:40.693Z,16.33
2018-02-01T18:57:12.612Z,18.23
2018-02-01T19:02:22.970Z,16.37
2018-02-01T19:04:54.900Z,19.70
2018-02-01T19:07:27.542Z,20.53
2018-02-01T19:09:59.473Z,17.20
2018-02-01T19:12:31.419Z,19.10
2018-02-01T19:15:03.343Z,17.77
2018-02-01T19:17:35.998Z,18.40
2018-02-01T19:20:07.883Z,15.33
2018-02-01T19:22:39.769Z,14.07
2018-02-01T19:25:11.658Z,17.43
2018-02-01T19:27:43.532Z,16.60
2018-02-01T19:30:15.442Z,17.57
2018-02-01T19:32:48.343Z,11.60
2018-02-01T19:35:20.247Z,19.27
2018-02-01T19:37:52.154Z,17.93
2018-02-01T19:40:24.065Z,19.60
2018-02-01T19:42:55.934Z,20.33
2018-02-01T19:45:27.827Z,18.03
2018-02-01T19:48:00.466Z,15.17
2018-02-01T19:50:32.364Z,21.83
2018-02-01T19:53:05.010Z,18.80
2018-02-01T19:55:36.890Z,21.37
2018-02-01T19:58:09.531Z,21.57
2018-02-01T20:00:41.411Z,17.87
2018-02-01T20:03:13.286Z,17.67
2018-02-01T20:05:46.192Z,15.63
2018-02-01T20:08:18.355Z,22.07
2018-02-01T20:10:50.243Z,14.03
2018-02-01T20:13:22.115Z,14.90
2018-02-01T20:15:54.011Z,15.27
2018-02-01T20:18:25.892Z,14.37
2018-02-01T20:20:58.559Z,14.23
2018-02-01T20:23:31.191Z,17.67
2018-02-01T20:26:03.080Z,17.67
2018-02-01T20:28:34.953Z,19.03
2018-02-01T20:31:07.612Z,22.50
2018-02-01T20:33:39.479Z,17.67
2018-02-01T20:36:11.362Z,15.23
2018-02-01T20:38:43.998Z,17.47
2018-02-01T20:41:15.910Z,19.73
2018-02-01T20:43:48.538Z,16.90
2018-02-01T20:46:20.425Z,16.47
2018-02-01T20:48:53.115Z,22.03
2018-02-01T20:51:25.825Z,18.00
2018-02-01T20:53:57.652Z,20.60
2018-02-01T20:56:30.349Z,19.10
2018-02-01T20:59:02.976Z,23.10
2018-02-01T21:01:34.916Z,23.30
2018-02-01T21:04:06.797Z,23.73
2018-02-01T21:06:38.690Z,28.57
2018-02-01T21:09:11.335Z,25.43
